Aeroporto :
LOGIN :

Iscrizione | Disclaimer

   EN    FR    IT 

 










Sommario :    VFR   VFR Marginale   IFR   IFR Intensivo   IFR Molto Intensivo
Visibilità : 
Base nubi : 
>= 8 km
>= 3000ft
5 / 8 km
1000 / 3000 ft
1500m / 5 km
500 / 1000 ft
800 / 1500m
200 / 500 ft
< 800m
< 200 ft
Simboli :   Temporali  Nebbia  Neve Forte  Precipitazioni Forti  Vento > 20 kt
SIGMETs :   Varie  Temporali  Ghiacco  Turbolenza  Onda orograficha  Ceneri Vulcaniche






- Altitudine del aeroporto : 138 ft
- Codice IATA : BIO


LEBB - Bilbao

ULTIMO METAR :
  • 101130Z 30006KT 260V360 9999 FEW025 BKN049 22/15 Q1021 NOSIG

METARs OBSOLETI :
  • 101100Z 29005KT 260V330 9999 FEW020 BKN047 22/17 Q1021 NOSIG
  • 101030Z 31005KT 280V350 9999 FEW015 SCT027 BKN045 21/18 Q1021 NOSIG
  • 101000Z 31003KT 240V350 9999 FEW018 BKN025 20/18 Q1021 NOSIG
  • 100930Z 28004KT 240V320 9999 FEW015 BKN025 20/18 Q1021 TEMPO BKN010
  • 100900Z 27004KT 230V300 9999 FEW010 BKN025 20/18 Q1021 TEMPO BKN010

TAF TAF LEBB
Valido dal 10 a 12 ore il 11 a 12 ore UTC


101100Z 1012/1112 VRB05KT 9999 SCT020 BKN030 TX25/1112Z TN16/1105Z
TEMPO 1012/1018 32009KT
TEMPO 1022/1105 3000 -RADZ BKN010



MetMap, La meteo Aeronautica in un colpo d'occhio ! - Copyright ORBIFLY Dicembre 2007 - Disclaimer

ORBIFLY MET'MAP TEAM :

Programmazione e sviluppo : Alexandra Zaïnal
Concezione : Baudouin d'Aumeries
Aiuto per la programmazione : Marc-Olivier Méhu
Supporto tecnico e logistico : Manuel Goepfert
Aiuto per la traduzione : Arnaldo La Scala

Contatto : metmap@orbifly.com




FONTI E CREDITI :

   NOAA